Time;durP1;ratioP1;P1;durP2;ratioP2;P2;SDS_P1;SDS_P2;PMS_P1;PMS_P2;Temp;Humidity;BMP_temperature;BMP_pressure;BME280_temperature;BME280_humidity;BME280_pressure;Samples;Min_cycle;Max_cycle;Signal;HPM_P1;HPM_P2
2021/07/03 00:02:01;;;;;;;30.90;24.20;;;;;;;;;;5114275;28;20488;-51
2021/07/03 00:04:27;;;;;;;31.40;23.53;;;;;;;;;;5113996;28;20415;-51
2021/07/03 00:06:53;;;;;;;27.90;22.03;;;;;;;;;;5114385;28;20457;-51
2021/07/03 00:09:19;;;;;;;33.63;23.83;;;;;;;;;;5095836;28;20480;-51
2021/07/03 00:11:45;;;;;;;31.83;23.90;;;;;;;;;;5114125;28;20768;-51
2021/07/03 00:14:11;;;;;;;29.50;23.53;;;;;;;;;;5114166;28;20902;-51
2021/07/03 00:16:37;;;;;;;28.20;22.40;;;;;;;;;;5113714;28;20403;-51
2021/07/03 00:19:04;;;;;;;34.67;24.30;;;;;;;;;;5113810;28;20408;-51
2021/07/03 00:21:31;;;;;;;27.37;23.10;;;;;;;;;;5113551;28;20424;-51
2021/07/03 00:23:57;;;;;;;35.13;24.17;;;;;;;;;;5095155;28;20417;-52
2021/07/03 00:26:23;;;;;;;29.87;23.10;;;;;;;;;;5113536;28;20447;-51
2021/07/03 00:28:49;;;;;;;30.70;23.53;;;;;;;;;;5113892;28;20494;-52
2021/07/03 00:31:15;;;;;;;35.47;24.70;;;;;;;;;;5113744;28;20378;-52
2021/07/03 00:33:41;;;;;;;30.67;24.00;;;;;;;;;;5112839;28;20427;-52
2021/07/03 00:36:07;;;;;;;31.60;23.77;;;;;;;;;;5113356;28;21035;-51
2021/07/03 00:38:33;;;;;;;41.50;24.43;;;;;;;;;;5113178;28;20404;-51
2021/07/03 00:40:59;;;;;;;34.50;24.13;;;;;;;;;;5113425;28;20402;-51
2021/07/03 00:43:25;;;;;;;30.23;23.73;;;;;;;;;;5113208;28;20766;-52
2021/07/03 00:45:51;;;;;;;32.80;25.10;;;;;;;;;;5113051;28;20465;-51
2021/07/03 00:48:17;;;;;;;34.73;24.10;;;;;;;;;;5113405;28;20562;-51
2021/07/03 00:50:43;;;;;;;38.30;25.87;;;;;;;;;;5113022;28;20376;-51
2021/07/03 00:53:10;;;;;;;43.17;25.03;;;;;;;;;;5113175;28;20405;-52
2021/07/03 00:55:36;;;;;;;37.43;25.07;;;;;;;;;;5113080;28;20394;-51
2021/07/03 00:58:02;;;;;;;33.53;24.00;;;;;;;;;;5112807;28;20417;-51
2021/07/03 01:00:29;;;;;;;29.90;24.30;;;;;;;;;;5112883;28;20420;-51
2021/07/03 01:02:55;;;;;;;37.13;25.27;;;;;;;;;;5111937;28;20462;-51
2021/07/03 01:05:21;;;;;;;30.73;23.40;;;;;;;;;;5111643;28;20460;-51
2021/07/03 01:07:47;;;;;;;33.53;25.37;;;;;;;;;;5112488;28;20765;-51
2021/07/03 01:10:23;;;;;;;39.07;25.00;;;;;;;;;;5112277;28;20393;-51
2021/07/03 01:12:49;;;;;;;36.63;26.30;;;;;;;;;;5112385;28;20896;-51
2021/07/03 01:15:16;;;;;;;40.93;26.97;;;;;;;;;;5112530;28;20891;-52
2021/07/03 01:17:42;;;;;;;41.40;28.07;;;;;;;;;;5112968;28;20473;-51
2021/07/03 01:20:08;;;;;;;46.00;28.73;;;;;;;;;;5112378;28;20907;-51
2021/07/03 01:22:34;;;;;;;39.73;26.77;;;;;;;;;;5112572;28;20402;-51
2021/07/03 01:25:00;;;;;;;40.87;26.97;;;;;;;;;;5111947;28;20458;-51
2021/07/03 01:27:26;;;;;;;34.57;25.33;;;;;;;;;;5112089;28;20407;-51
2021/07/03 01:29:53;;;;;;;35.53;26.00;;;;;;;;;;5112555;28;20422;-51
2021/07/03 01:32:19;;;;;;;38.80;25.03;;;;;;;;;;5112467;28;20378;-51
2021/07/03 01:34:45;;;;;;;40.03;27.10;;;;;;;;;;5111812;28;20445;-51
2021/07/03 01:37:11;;;;;;;43.87;29.53;;;;;;;;;;5112461;28;20427;-51
2021/07/03 01:39:38;;;;;;;38.33;28.37;;;;;;;;;;5112155;28;20399;-51
2021/07/03 01:42:04;;;;;;;37.37;24.43;;;;;;;;;;5112174;28;20453;-51
2021/07/03 01:44:30;;;;;;;39.13;23.10;;;;;;;;;;5111640;28;20778;-51
2021/07/03 01:46:57;;;;;;;44.07;22.90;;;;;;;;;;5112244;28;20509;-51
2021/07/03 01:49:24;;;;;;;34.00;22.80;;;;;;;;;;5112814;28;20473;-51
2021/07/03 01:51:50;;;;;;;29.67;22.17;;;;;;;;;;5112490;28;20417;-51
2021/07/03 01:54:17;;;;;;;35.10;23.00;;;;;;;;;;5111909;28;20422;-52
2021/07/03 01:56:43;;;;;;;39.00;24.70;;;;;;;;;;5112212;28;20459;-52
2021/07/03 01:59:10;;;;;;;30.33;24.33;;;;;;;;;;5112612;28;20407;-51
2021/07/03 02:01:36;;;;;;;36.10;24.97;;;;;;;;;;5112255;28;20437;-51
2021/07/03 02:04:02;;;;;;;34.53;25.43;;;;;;;;;;5111976;28;20404;-51
2021/07/03 02:06:28;;;;;;;34.33;24.37;;;;;;;;;;5112438;28;20443;-51
2021/07/03 02:08:54;;;;;;;33.80;23.83;;;;;;;;;;5112319;28;20397;-51
2021/07/03 02:11:20;;;;;;;36.07;25.07;;;;;;;;;;5112167;28;20465;-51
2021/07/03 02:13:46;;;;;;;37.93;25.33;;;;;;;;;;5112049;28;20396;-51
2021/07/03 02:16:12;;;;;;;38.60;27.73;;;;;;;;;;5111984;28;20502;-51
2021/07/03 02:18:38;;;;;;;38.33;27.40;;;;;;;;;;5112006;28;20399;-51
2021/07/03 02:21:04;;;;;;;43.37;30.60;;;;;;;;;;5111912;28;20405;-51
2021/07/03 02:23:30;;;;;;;44.57;30.07;;;;;;;;;;5112096;28;20923;-51
2021/07/03 02:25:56;;;;;;;46.63;29.23;;;;;;;;;;5111612;28;20456;-51
2021/07/03 02:28:23;;;;;;;32.93;25.50;;;;;;;;;;5111832;28;20394;-51
2021/07/03 02:30:49;;;;;;;36.70;26.27;;;;;;;;;;5112056;28;20396;-51
2021/07/03 02:33:15;;;;;;;36.77;24.17;;;;;;;;;;5111606;28;20562;-51
2021/07/03 02:35:41;;;;;;;39.23;24.83;;;;;;;;;;5111749;28;20489;-51
2021/07/03 02:38:07;;;;;;;35.90;25.50;;;;;;;;;;5111757;28;20409;-51
2021/07/03 02:40:33;;;;;;;41.27;26.93;;;;;;;;;;5114828;28;20408;-51
2021/07/03 02:42:59;;;;;;;40.13;27.43;;;;;;;;;;5115676;28;20409;-51
2021/07/03 02:45:25;;;;;;;41.80;28.10;;;;;;;;;;5114956;28;20471;-51
2021/07/03 02:47:51;;;;;;;42.60;28.53;;;;;;;;;;5115210;28;20377;-51
2021/07/03 02:50:19;;;;;;;43.80;31.30;;;;;;;;;;5115290;28;20401;-51
2021/07/03 02:52:45;;;;;;;69.80;39.00;;;;;;;;;;5115226;28;20403;-51
2021/07/03 02:55:12;;;;;;;73.30;43.97;;;;;;;;;;5114836;28;20398;-51
2021/07/03 02:57:38;;;;;;;83.40;48.33;;;;;;;;;;5115034;28;20402;-51
2021/07/03 03:00:08;;;;;;;72.77;46.80;;;;;;;;;;5115105;28;20439;-51
2021/07/03 03:02:34;;;;;;;69.80;43.40;;;;;;;;;;5115055;28;20395;-52
2021/07/03 03:05:00;;;;;;;58.93;37.20;;;;;;;;;;5114304;28;20477;-52
2021/07/03 03:07:26;;;;;;;37.97;24.73;;;;;;;;;;5114875;28;20467;-52
2021/07/03 03:09:52;;;;;;;33.30;23.80;;;;;;;;;;5115002;28;20397;-51
2021/07/03 03:12:18;;;;;;;34.93;22.30;;;;;;;;;;5114690;28;20714;-51
2021/07/03 03:14:44;;;;;;;31.37;22.40;;;;;;;;;;5114487;28;20424;-51
2021/07/03 03:17:10;;;;;;;26.27;20.90;;;;;;;;;;5114579;28;20895;-51
2021/07/03 03:19:36;;;;;;;32.13;22.30;;;;;;;;;;5114380;28;20913;-52
2021/07/03 03:22:02;;;;;;;28.77;21.57;;;;;;;;;;5114417;28;20808;-51
2021/07/03 03:24:28;;;;;;;31.30;22.97;;;;;;;;;;5114406;28;20421;-52
2021/07/03 03:26:53;;;;;;;33.67;23.73;;;;;;;;;;5095928;28;20430;-52
2021/07/03 03:29:19;;;;;;;32.83;23.63;;;;;;;;;;5114281;28;20788;-51
2021/07/03 03:31:45;;;;;;;30.83;22.20;;;;;;;;;;5114627;28;20393;-51
2021/07/03 03:34:11;;;;;;;30.57;23.53;;;;;;;;;;5113710;28;20510;-51
2021/07/03 03:36:37;;;;;;;34.03;24.30;;;;;;;;;;5114469;28;20423;-51
2021/07/03 03:39:03;;;;;;;31.10;22.60;;;;;;;;;;5114133;28;20404;-52
2021/07/03 03:41:29;;;;;;;39.73;25.20;;;;;;;;;;5113652;28;20404;-51
2021/07/03 03:43:57;;;;;;;36.80;25.57;;;;;;;;;;5113309;28;20384;-51
2021/07/03 03:46:23;;;;;;;38.60;25.93;;;;;;;;;;5095398;28;20452;-51
2021/07/03 03:48:49;;;;;;;33.97;24.13;;;;;;;;;;5113684;28;20389;-51
2021/07/03 03:51:15;;;;;;;35.90;23.67;;;;;;;;;;5112891;28;20481;-51
2021/07/03 03:53:41;;;;;;;38.60;24.53;;;;;;;;;;5094990;28;20482;-51
2021/07/03 03:56:08;;;;;;;34.47;23.80;;;;;;;;;;5095321;28;20424;-51
2021/07/03 03:58:34;;;;;;;34.67;24.43;;;;;;;;;;5113369;28;20449;-51
2021/07/03 04:01:00;;;;;;;29.97;21.77;;;;;;;;;;5113224;28;20404;-51
2021/07/03 04:03:26;;;;;;;28.40;22.17;;;;;;;;;;5094980;28;20431;-51
2021/07/03 04:05:52;;;;;;;28.43;19.63;;;;;;;;;;5113150;28;20596;-51
2021/07/03 04:08:18;;;;;;;31.37;23.33;;;;;;;;;;5113530;28;20759;-51
2021/07/03 04:10:45;;;;;;;27.50;20.83;;;;;;;;;;5113364;28;20478;-51
2021/07/03 04:13:11;;;;;;;30.47;21.10;;;;;;;;;;5113236;28;20398;-51
2021/07/03 04:15:37;;;;;;;29.40;20.80;;;;;;;;;;5113041;28;20421;-51
2021/07/03 04:18:03;;;;;;;30.70;20.73;;;;;;;;;;5094985;28;20444;-51
2021/07/03 04:20:29;;;;;;;28.77;19.43;;;;;;;;;;5113496;28;20406;-50
2021/07/03 04:22:55;;;;;;;30.40;19.50;;;;;;;;;;5113359;28;20406;-51
2021/07/03 04:25:21;;;;;;;25.80;19.40;;;;;;;;;;5112826;28;20488;-51
2021/07/03 04:27:48;;;;;;;38.03;20.27;;;;;;;;;;5113193;28;20480;-51
2021/07/03 04:30:14;;;;;;;28.93;20.10;;;;;;;;;;5113010;28;20769;-51
2021/07/03 04:32:40;;;;;;;30.03;20.63;;;;;;;;;;5094861;28;20387;-51
2021/07/03 04:35:07;;;;;;;30.87;20.80;;;;;;;;;;5112614;28;20418;-51
2021/07/03 04:37:33;;;;;;;33.13;20.27;;;;;;;;;;5113022;28;20415;-51
2021/07/03 04:40:00;;;;;;;30.40;22.07;;;;;;;;;;5112788;28;20405;-51
2021/07/03 04:42:26;;;;;;;26.40;20.80;;;;;;;;;;5112705;28;20415;-50
2021/07/03 04:44:51;;;;;;;24.53;20.00;;;;;;;;;;5112317;28;20419;-51
2021/07/03 04:47:17;;;;;;;31.07;20.67;;;;;;;;;;5112578;28;20489;-51
2021/07/03 04:49:43;;;;;;;26.80;21.27;;;;;;;;;;5112730;28;20376;-51
2021/07/03 04:52:09;;;;;;;24.27;18.63;;;;;;;;;;5112575;28;20392;-51
2021/07/03 04:54:35;;;;;;;28.00;20.50;;;;;;;;;;5112189;28;20398;-51
2021/07/03 04:57:08;;;;;;;27.10;20.50;;;;;;;;;;5112604;28;20486;-52
2021/07/03 04:59:37;;;;;;;29.20;20.30;;;;;;;;;;5112627;28;20386;-51
2021/07/03 05:02:05;;;;;;;30.13;21.00;;;;;;;;;;5112238;28;20442;-51
2021/07/03 05:04:31;;;;;;;30.13;21.20;;;;;;;;;;5112165;28;20395;-51
2021/07/03 05:06:57;;;;;;;24.33;20.33;;;;;;;;;;5112546;28;20961;-51
2021/07/03 05:09:23;;;;;;;27.90;20.70;;;;;;;;;;5112766;28;20406;-52
2021/07/03 05:11:49;;;;;;;28.40;22.03;;;;;;;;;;5112628;28;20708;-51
2021/07/03 05:14:15;;;;;;;31.10;22.50;;;;;;;;;;5111772;28;20395;-51
2021/07/03 05:16:41;;;;;;;26.03;20.63;;;;;;;;;;5112577;28;20399;-53
2021/07/03 05:19:07;;;;;;;30.63;22.63;;;;;;;;;;5112249;28;20471;-51
2021/07/03 05:21:33;;;;;;;33.03;24.07;;;;;;;;;;5093853;28;20810;-51
2021/07/03 05:23:59;;;;;;;34.00;24.53;;;;;;;;;;5111814;28;20596;-51
2021/07/03 05:26:25;;;;;;;29.53;23.97;;;;;;;;;;5112199;28;20808;-51
2021/07/03 05:28:51;;;;;;;33.47;24.60;;;;;;;;;;5111976;28;20391;-51
2021/07/03 05:31:17;;;;;;;33.00;25.47;;;;;;;;;;5112176;28;20402;-51
2021/07/03 05:33:43;;;;;;;33.90;22.77;;;;;;;;;;5111388;28;20385;-52
2021/07/03 05:36:09;;;;;;;27.63;21.40;;;;;;;;;;5093769;28;20458;-51
2021/07/03 05:38:42;;;;;;;26.93;21.13;;;;;;;;;;5111836;28;20432;-51
2021/07/03 05:41:11;;;;;;;41.77;23.60;;;;;;;;;;5111546;28;20491;-52
2021/07/03 05:43:37;;;;;;;26.10;20.80;;;;;;;;;;5111436;28;20502;-52
2021/07/03 05:46:04;;;;;;;25.23;19.97;;;;;;;;;;5111372;28;20984;-51
2021/07/03 05:48:30;;;;;;;25.77;19.50;;;;;;;;;;5111471;28;20850;-51
2021/07/03 05:50:56;;;;;;;25.07;18.87;;;;;;;;;;5111980;28;20515;-53
2021/07/03 05:53:22;;;;;;;21.63;17.20;;;;;;;;;;5110913;28;20402;-52
2021/07/03 05:55:48;;;;;;;23.00;17.33;;;;;;;;;;5110747;28;20490;-53
2021/07/03 05:58:14;;;;;;;22.20;17.80;;;;;;;;;;5110881;28;20409;-51
2021/07/03 06:00:40;;;;;;;23.30;17.80;;;;;;;;;;5111087;28;20403;-51
2021/07/03 06:03:06;;;;;;;24.60;17.40;;;;;;;;;;5111048;28;20375;-51
2021/07/03 06:05:31;;;;;;;22.70;17.60;;;;;;;;;;5110508;28;20786;-50
2021/07/03 06:07:57;;;;;;;23.27;16.33;;;;;;;;;;5111167;28;20421;-51
2021/07/03 06:10:23;;;;;;;20.83;17.63;;;;;;;;;;5110993;28;20448;-51
2021/07/03 06:12:49;;;;;;;20.10;16.00;;;;;;;;;;5111210;28;20409;-51
2021/07/03 06:15:16;;;;;;;23.10;16.97;;;;;;;;;;5113966;28;20450;-50
2021/07/03 06:17:42;;;;;;;22.17;16.27;;;;;;;;;;5115356;28;20726;-50
2021/07/03 06:20:09;;;;;;;18.33;15.60;;;;;;;;;;5115126;28;20396;-51
2021/07/03 06:22:36;;;;;;;22.40;16.73;;;;;;;;;;5115062;28;20400;-51
2021/07/03 06:25:02;;;;;;;19.50;15.77;;;;;;;;;;5114419;28;20946;-51
2021/07/03 06:27:28;;;;;;;32.97;16.40;;;;;;;;;;5114911;28;20371;-51
2021/07/03 06:29:54;;;;;;;20.67;16.80;;;;;;;;;;5114540;28;20468;-51
2021/07/03 06:32:20;;;;;;;16.60;14.60;;;;;;;;;;5114769;28;20396;-51
2021/07/03 06:34:46;;;;;;;20.20;15.70;;;;;;;;;;5114126;28;20447;-51
2021/07/03 06:37:12;;;;;;;17.20;15.37;;;;;;;;;;5114679;28;20402;-51
2021/07/03 06:39:38;;;;;;;18.13;16.00;;;;;;;;;;5114267;28;20384;-51
2021/07/03 06:42:04;;;;;;;17.97;15.60;;;;;;;;;;5114403;28;20473;-51
2021/07/03 06:44:29;;;;;;;16.90;14.77;;;;;;;;;;5114099;28;20898;-51
2021/07/03 06:46:55;;;;;;;17.47;15.60;;;;;;;;;;5114322;28;20427;-52
2021/07/03 06:49:21;;;;;;;16.70;14.30;;;;;;;;;;5114150;28;20441;-51
2021/07/03 06:51:48;;;;;;;16.40;13.77;;;;;;;;;;5114252;28;20368;-51
2021/07/03 06:54:14;;;;;;;17.70;14.93;;;;;;;;;;5113798;28;20396;-51
2021/07/03 06:56:40;;;;;;;14.63;13.07;;;;;;;;;;5114162;28;20708;-51
2021/07/03 06:59:05;;;;;;;15.70;13.87;;;;;;;;;;5114088;28;20410;-51
2021/07/03 07:01:31;;;;;;;15.57;14.00;;;;;;;;;;5113982;28;20406;-51
2021/07/03 07:03:57;;;;;;;16.97;13.37;;;;;;;;;;5113629;28;20777;-52
2021/07/03 07:06:24;;;;;;;16.23;12.73;;;;;;;;;;5113849;28;20450;-52
2021/07/03 07:08:50;;;;;;;14.03;12.60;;;;;;;;;;5114355;28;20403;-51
2021/07/03 07:11:16;;;;;;;15.90;13.70;;;;;;;;;;5113804;28;20394;-51
2021/07/03 07:13:42;;;;;;;15.70;14.17;;;;;;;;;;5113527;28;20399;-51
2021/07/03 07:16:08;;;;;;;18.30;14.23;;;;;;;;;;5113485;28;20434;-51
2021/07/03 07:18:34;;;;;;;15.77;14.17;;;;;;;;;;5113654;28;20496;-51
2021/07/03 07:21:00;;;;;;;19.30;14.27;;;;;;;;;;5113564;28;20409;-51
2021/07/03 07:23:26;;;;;;;15.93;14.33;;;;;;;;;;5113499;28;20408;-52
2021/07/03 07:25:52;;;;;;;15.23;13.73;;;;;;;;;;5112195;28;20896;-52
2021/07/03 07:28:18;;;;;;;17.73;15.93;;;;;;;;;;5113709;28;20447;-51
2021/07/03 07:30:44;;;;;;;22.47;16.27;;;;;;;;;;5113412;28;20447;-51
2021/07/03 07:33:10;;;;;;;19.33;16.43;;;;;;;;;;5113548;28;21069;-51
2021/07/03 07:35:36;;;;;;;18.60;15.47;;;;;;;;;;5113073;28;20467;-51
2021/07/03 07:38:02;;;;;;;17.63;15.67;;;;;;;;;;5113276;28;20397;-51
2021/07/03 07:40:28;;;;;;;22.47;17.70;;;;;;;;;;5113215;28;20410;-51
2021/07/03 07:42:54;;;;;;;22.73;18.03;;;;;;;;;;5113308;28;20402;-51
2021/07/03 07:45:20;;;;;;;19.60;16.77;;;;;;;;;;5112795;28;20454;-51
2021/07/03 07:47:47;;;;;;;19.17;16.33;;;;;;;;;;5113044;28;20437;-52
2021/07/03 07:50:13;;;;;;;19.67;16.70;;;;;;;;;;5113070;28;20454;-51
2021/07/03 07:52:39;;;;;;;19.10;15.90;;;;;;;;;;5112906;28;20430;-51
2021/07/03 07:55:05;;;;;;;21.80;16.67;;;;;;;;;;5112663;28;20428;-51
2021/07/03 07:57:31;;;;;;;17.13;15.27;;;;;;;;;;5113096;28;20466;-51
2021/07/03 07:59:57;;;;;;;18.67;16.47;;;;;;;;;;5113080;28;20401;-51
2021/07/03 08:02:23;;;;;;;16.57;14.87;;;;;;;;;;5112717;28;20734;-51
2021/07/03 08:04:49;;;;;;;18.80;16.80;;;;;;;;;;5112494;28;20425;-53
2021/07/03 08:07:15;;;;;;;15.80;14.20;;;;;;;;;;5112545;28;20545;-53
2021/07/03 08:09:44;;;;;;;16.07;12.27;;;;;;;;;;5112752;28;20391;-51
2021/07/03 08:12:12;;;;;;;15.93;13.83;;;;;;;;;;5112697;28;20395;-51
2021/07/03 08:14:38;;;;;;;15.30;13.70;;;;;;;;;;5112622;28;20790;-51
2021/07/03 08:17:03;;;;;;;14.43;13.03;;;;;;;;;;5112547;28;20905;-51
2021/07/03 08:19:29;;;;;;;13.03;11.73;;;;;;;;;;5112501;28;20402;-51
2021/07/03 08:21:58;;;;;;;16.77;13.27;;;;;;;;;;5112538;28;20407;-52
2021/07/03 08:24:24;;;;;;;14.13;12.60;;;;;;;;;;5112491;28;20476;-51
2021/07/03 08:26:50;;;;;;;11.93;10.73;;;;;;;;;;5112666;28;20529;-52
2021/07/03 08:29:17;;;;;;;12.93;11.13;;;;;;;;;;5112683;28;20391;-52
2021/07/03 08:31:43;;;;;;;14.23;11.20;;;;;;;;;;5112477;28;20514;-52
2021/07/03 08:34:09;;;;;;;12.50;10.53;;;;;;;;;;5111936;28;20438;-52
2021/07/03 08:36:35;;;;;;;12.93;11.43;;;;;;;;;;5112286;28;20476;-52
2021/07/03 08:39:01;;;;;;;12.67;9.00;;;;;;;;;;5112191;28;20438;-52
2021/07/03 08:41:29;;;;;;;10.53;9.00;;;;;;;;;;5112224;28;20168;-52
2021/07/03 08:43:56;;;;;;;11.10;9.90;;;;;;;;;;5111881;28;20425;-52
2021/07/03 08:46:22;;;;;;;10.50;7.63;;;;;;;;;;5112014;28;20450;-54
2021/07/03 08:48:52;;;;;;;7.67;7.07;;;;;;;;;;5111888;28;20398;-52
2021/07/03 08:51:18;;;;;;;11.13;10.13;;;;;;;;;;5111939;28;20498;-52
2021/07/03 08:53:44;;;;;;;10.37;9.10;;;;;;;;;;5111545;28;20491;-53
2021/07/03 08:56:10;;;;;;;8.73;7.83;;;;;;;;;;5111924;28;20407;-52
2021/07/03 08:58:36;;;;;;;10.40;9.50;;;;;;;;;;5111725;28;20760;-54
2021/07/03 09:01:04;;;;;;;8.83;8.10;;;;;;;;;;5093652;28;20915;-54
2021/07/03 09:03:31;;;;;;;8.57;7.80;;;;;;;;;;5111502;28;20414;-53
2021/07/03 09:05:58;;;;;;;9.00;8.30;;;;;;;;;;5111284;28;20454;-52
2021/07/03 09:08:25;;;;;;;10.60;7.53;;;;;;;;;;5111467;28;20403;-52
2021/07/03 09:11:06;;;;;;;9.60;8.30;;;;;;;;;;5111717;28;20433;-52
2021/07/03 09:13:33;;;;;;;9.40;7.13;;;;;;;;;;5111356;28;20868;-53
2021/07/03 09:16:01;;;;;;;8.83;8.03;;;;;;;;;;5111128;28;20813;-52
2021/07/03 09:18:28;;;;;;;8.23;7.43;;;;;;;;;;5110647;28;20402;-52
2021/07/03 09:21:04;;;;;;;10.00;9.10;;;;;;;;;;5110525;28;20453;-51
2021/07/03 09:23:38;;;;;;;10.10;9.10;;;;;;;;;;5110512;28;20399;-51
2021/07/03 09:26:08;;;;;;;11.80;8.87;;;;;;;;;;5111586;28;20537;-52
2021/07/03 09:28:37;;;;;;;10.07;9.10;;;;;;;;;;5111357;28;20824;-51
2021/07/03 09:31:04;;;;;;;10.63;9.37;;;;;;;;;;5111309;28;20818;-52
2021/07/03 09:33:30;;;;;;;10.30;9.40;;;;;;;;;;5110992;28;20414;-52
2021/07/03 09:36:00;;;;;;;9.60;8.80;;;;;;;;;;5110950;28;20555;-52
2021/07/03 09:38:30;;;;;;;9.03;8.33;;;;;;;;;;5111128;28;20175;-52
2021/07/03 09:41:04;;;;;;;13.40;12.20;;;;;;;;;;5111091;28;20424;-53
2021/07/03 09:43:30;;;;;;;7.40;6.70;;;;;;;;;;5111044;28;20389;-53
2021/07/03 09:45:56;;;;;;;7.80;7.10;;;;;;;;;;5110470;28;20450;-54
2021/07/03 09:48:22;;;;;;;9.07;8.20;;;;;;;;;;5109657;28;20398;-53
2021/07/03 09:50:48;;;;;;;8.67;7.87;;;;;;;;;;5110319;28;20263;-53
2021/07/03 09:53:14;;;;;;;8.20;7.57;;;;;;;;;;5110961;28;20168;-52
2021/07/03 09:55:40;;;;;;;10.70;9.63;;;;;;;;;;5109360;28;20201;-53
2021/07/03 09:58:08;;;;;;;11.07;10.10;;;;;;;;;;5110031;28;20749;-54
2021/07/03 10:00:35;;;;;;;10.80;9.30;;;;;;;;;;5109818;28;20187;-53
2021/07/03 10:03:04;;;;;;;9.77;8.87;;;;;;;;;;5109689;28;20403;-53
2021/07/03 10:05:30;;;;;;;6.70;6.10;;;;;;;;;;5109296;28;20970;-54
2021/07/03 10:07:59;;;;;;;35.50;32.20;;;;;;;;;;5109862;28;20483;-54
2021/07/03 10:10:28;;;;;;;8.20;7.40;;;;;;;;;;5109604;28;20430;-55
2021/07/03 10:12:59;;;;;;;7.20;6.60;;;;;;;;;;5110081;28;20399;-55
2021/07/03 10:15:29;;;;;;;7.83;7.23;;;;;;;;;;5110418;28;20908;-53
2021/07/03 10:18:06;;;;;;;8.20;7.60;;;;;;;;;;5110932;28;20391;-53
2021/07/03 10:20:33;;;;;;;7.33;6.73;;;;;;;;;;5110516;28;20406;-54
2021/07/03 10:22:59;;;;;;;7.37;6.87;;;;;;;;;;5110862;28;20459;-53
2021/07/03 10:25:33;;;;;;;6.13;5.73;;;;;;;;;;5109837;28;20820;-54
2021/07/03 10:27:59;;;;;;;6.17;5.77;;;;;;;;;;5108240;28;20252;-53
2021/07/03 10:30:27;;;;;;;6.50;6.00;;;;;;;;;;5108849;28;20491;-54
2021/07/03 10:32:56;;;;;;;7.13;6.43;;;;;;;;;;5107021;28;20406;-55
2021/07/03 10:35:23;;;;;;;5.97;5.50;;;;;;;;;;5109490;28;20923;-56
2021/07/03 10:37:49;;;;;;;6.10;5.30;;;;;;;;;;5110386;28;20955;-55
2021/07/03 10:40:19;;;;;;;8.73;5.50;;;;;;;;;;5110509;28;20394;-55
2021/07/03 10:42:45;;;;;;;7.57;5.53;;;;;;;;;;5110509;28;20426;-53
2021/07/03 10:45:16;;;;;;;6.27;5.10;;;;;;;;;;5109958;28;20410;-55
2021/07/03 10:47:43;;;;;;;5.60;5.20;;;;;;;;;;5109696;28;20395;-55
2021/07/03 10:50:28;;;;;;;6.20;5.80;;;;;;;;;;5108581;28;20402;-56
2021/07/03 10:52:55;;;;;;;6.37;5.77;;;;;;;;;;5108306;28;20474;-53
2021/07/03 10:55:41;;;;;;;6.27;5.00;;;;;;;;;;5108097;28;20415;-54
2021/07/03 10:58:14;;;;;;;6.60;6.10;;;;;;;;;;5109377;28;20533;-54
2021/07/03 11:00:40;;;;;;;9.50;5.97;;;;;;;;;;5110485;28;20768;-55
2021/07/03 11:03:16;;;;;;;6.10;5.60;;;;;;;;;;5112428;28;20425;-54
2021/07/03 11:05:42;;;;;;;5.40;5.00;;;;;;;;;;5112570;28;20446;-54
2021/07/03 11:08:10;;;;;;;4.93;4.63;;;;;;;;;;5112443;28;20429;-55
2021/07/03 11:10:36;;;;;;;5.20;4.80;;;;;;;;;;5110272;28;20406;-54
2021/07/03 11:13:02;;;;;;;5.37;5.03;;;;;;;;;;5113652;28;20395;-54
2021/07/03 11:15:29;;;;;;;5.43;5.03;;;;;;;;;;5110936;28;20455;-55
2021/07/03 11:17:56;;;;;;;5.57;5.17;;;;;;;;;;5110664;28;20413;-54
2021/07/03 11:20:28;;;;;;;5.40;5.10;;;;;;;;;;5109624;28;20410;-55
2021/07/03 11:22:56;;;;;;;6.93;5.30;;;;;;;;;;5113230;28;20414;-53
2021/07/03 11:25:29;;;;;;;6.10;5.60;;;;;;;;;;5111332;28;20462;-53
2021/07/03 11:28:10;;;;;;;5.90;5.37;;;;;;;;;;5111544;28;20398;-53
2021/07/03 11:30:37;;;;;;;4.90;4.50;;;;;;;;;;5112141;28;20489;-54
2021/07/03 11:33:03;;;;;;;4.73;4.37;;;;;;;;;;5112401;28;20482;-53
2021/07/03 11:35:30;;;;;;;4.90;4.60;;;;;;;;;;5111780;28;20561;-55
2021/07/03 11:37:56;;;;;;;6.23;5.47;;;;;;;;;;5112761;28;20401;-54
2021/07/03 11:40:25;;;;;;;4.70;4.40;;;;;;;;;;5113318;28;20399;-53
2021/07/03 11:42:52;;;;;;;7.10;4.53;;;;;;;;;;5113170;28;20408;-54
2021/07/03 11:45:19;;;;;;;4.83;4.53;;;;;;;;;;5112959;28;20417;-54
2021/07/03 11:47:46;;;;;;;4.87;4.47;;;;;;;;;;5113123;28;20418;-53
2021/07/03 11:50:21;;;;;;;4.80;4.40;;;;;;;;;;5113600;28;20408;-55
2021/07/03 11:52:51;;;;;;;5.07;4.63;;;;;;;;;;5113014;28;20458;-55
2021/07/03 11:55:34;;;;;;;4.97;4.57;;;;;;;;;;5112611;28;20935;-55
2021/07/03 11:58:01;;;;;;;5.07;4.67;;;;;;;;;;5112935;28;20915;-55
2021/07/03 12:00:26;;;;;;;5.03;4.70;;;;;;;;;;5112841;28;20413;-56
2021/07/03 12:02:53;;;;;;;4.33;4.03;;;;;;;;;;5113016;28;20778;-56
2021/07/03 12:05:22;;;;;;;4.60;4.40;;;;;;;;;;5112448;28;20184;-55
2021/07/03 12:07:57;;;;;;;4.50;4.20;;;;;;;;;;5112846;28;20470;-55
2021/07/03 12:10:31;;;;;;;7.00;4.90;;;;;;;;;;5112857;28;20387;-55
2021/07/03 12:12:57;;;;;;;4.97;4.47;;;;;;;;;;5112118;28;20391;-55
2021/07/03 12:15:25;;;;;;;5.63;5.03;;;;;;;;;;5112400;28;20427;-55
2021/07/03 12:17:52;;;;;;;6.33;5.33;;;;;;;;;;5112602;28;20171;-55
2021/07/03 12:20:19;;;;;;;5.03;4.73;;;;;;;;;;5112727;28;20449;-55
2021/07/03 12:22:56;;;;;;;4.40;4.20;;;;;;;;;;5112470;28;20651;-55
2021/07/03 12:25:22;;;;;;;4.90;4.50;;;;;;;;;;5111785;28;20513;-55
2021/07/03 12:27:54;;;;;;;9.97;9.27;;;;;;;;;;5112250;28;20402;-55
2021/07/03 12:30:21;;;;;;;8.40;7.70;;;;;;;;;;5112523;28;20406;-55
2021/07/03 12:32:47;;;;;;;5.13;4.83;;;;;;;;;;5112490;28;20791;-55
2021/07/03 12:35:13;;;;;;;8.87;8.17;;;;;;;;;;5112172;28;20438;-55
2021/07/03 12:37:40;;;;;;;6.17;5.30;;;;;;;;;;5112457;28;20747;-54
2021/07/03 12:40:16;;;;;;;4.87;4.57;;;;;;;;;;5112276;28;20391;-54
2021/07/03 12:42:42;;;;;;;4.93;4.63;;;;;;;;;;5112307;28;20399;-54
2021/07/03 12:45:09;;;;;;;8.07;7.50;;;;;;;;;;5111766;28;20802;-54
2021/07/03 12:47:35;;;;;;;6.00;5.60;;;;;;;;;;5112036;27;20455;-54
2021/07/03 12:50:01;;;;;;;4.60;4.30;;;;;;;;;;5112043;28;20402;-53
2021/07/03 12:52:53;;;;;;;4.97;4.53;;;;;;;;;;5111856;28;20387;-54
2021/07/03 12:55:19;;;;;;;6.30;5.70;;;;;;;;;;5108020;28;20450;-54
2021/07/03 12:57:46;;;;;;;6.83;6.33;;;;;;;;;;5111712;28;20771;-54
2021/07/03 13:00:14;;;;;;;4.57;4.17;;;;;;;;;;5111813;28;20172;-54
2021/07/03 13:02:40;;;;;;;4.93;4.53;;;;;;;;;;5111784;28;20452;-55
2021/07/03 13:05:06;;;;;;;5.40;4.23;;;;;;;;;;5111175;28;20739;-54
2021/07/03 13:07:32;;;;;;;4.50;4.10;;;;;;;;;;5111714;28;20460;-55
2021/07/03 13:09:59;;;;;;;20.33;18.40;;;;;;;;;;5111780;28;20540;-55
2021/07/03 13:12:25;;;;;;;4.77;4.47;;;;;;;;;;5111624;28;20482;-55
2021/07/03 13:14:51;;;;;;;5.50;4.23;;;;;;;;;;5111235;28;20454;-54
2021/07/03 13:17:17;;;;;;;4.93;4.53;;;;;;;;;;5111555;28;20515;-54
2021/07/03 13:19:43;;;;;;;5.40;4.70;;;;;;;;;;5111904;28;20398;-54
2021/07/03 13:22:09;;;;;;;4.20;3.90;;;;;;;;;;5111471;28;20395;-54
2021/07/03 13:24:35;;;;;;;5.33;4.50;;;;;;;;;;5110261;28;20426;-54
2021/07/03 13:27:01;;;;;;;5.30;4.80;;;;;;;;;;5111264;28;20450;-55
2021/07/03 13:29:27;;;;;;;4.23;3.93;;;;;;;;;;5111085;28;20390;-55
2021/07/03 13:31:53;;;;;;;4.87;4.40;;;;;;;;;;5111353;28;20759;-55
2021/07/03 13:34:19;;;;;;;12.83;11.63;;;;;;;;;;5110719;28;20573;-55
2021/07/03 13:36:47;;;;;;;6.77;6.27;;;;;;;;;;5111264;28;20214;-55
2021/07/03 13:39:13;;;;;;;5.80;5.30;;;;;;;;;;5111189;28;20188;-54
2021/07/03 13:41:38;;;;;;;9.00;8.30;;;;;;;;;;5111193;28;20907;-54
2021/07/03 13:44:05;;;;;;;4.33;4.13;;;;;;;;;;5110838;28;20767;-54
2021/07/03 13:46:31;;;;;;;4.90;4.40;;;;;;;;;;5111002;28;20450;-54
2021/07/03 13:48:57;;;;;;;4.30;4.00;;;;;;;;;;5111109;28;20984;-54
2021/07/03 13:51:22;;;;;;;5.37;4.97;;;;;;;;;;5111046;28;20673;-53
2021/07/03 13:53:48;;;;;;;6.93;6.27;;;;;;;;;;5110746;28;20310;-54
2021/07/03 13:56:14;;;;;;;9.50;8.70;;;;;;;;;;5111000;28;20460;-53
2021/07/03 13:58:41;;;;;;;7.70;6.90;;;;;;;;;;5111049;28;20426;-54
2021/07/03 14:01:08;;;;;;;5.43;5.03;;;;;;;;;;5110970;28;20399;-54
2021/07/03 14:03:34;;;;;;;4.70;4.40;;;;;;;;;;5111058;28;20416;-54
2021/07/03 14:06:00;;;;;;;5.27;4.87;;;;;;;;;;5110583;28;20544;-54
2021/07/03 14:08:26;;;;;;;7.13;6.63;;;;;;;;;;5110948;28;20398;-54
2021/07/03 14:10:52;;;;;;;5.40;5.00;;;;;;;;;;5110891;28;20947;-54
2021/07/03 14:13:18;;;;;;;4.70;4.23;;;;;;;;;;5110902;28;20544;-54
2021/07/03 14:15:44;;;;;;;6.93;6.40;;;;;;;;;;5110895;28;20200;-53
2021/07/03 14:18:10;;;;;;;5.00;4.70;;;;;;;;;;5111143;28;20525;-54
2021/07/03 14:20:36;;;;;;;4.73;4.33;;;;;;;;;;5111070;28;20406;-54
2021/07/03 14:23:02;;;;;;;4.30;4.00;;;;;;;;;;5110987;28;20774;-54
2021/07/03 14:25:28;;;;;;;4.77;4.47;;;;;;;;;;5110496;28;20450;-54